createdAt,value
2018-04-04T00:01:57.287Z,12.60
2018-04-04T00:03:58.274Z,12.70
2018-04-04T00:06:00.002Z,12.70
2018-04-04T00:08:01.002Z,12.70
2018-04-04T00:10:01.966Z,12.60
2018-04-04T00:12:02.941Z,12.60
2018-04-04T00:14:03.914Z,12.50
2018-04-04T00:16:04.878Z,12.50
2018-04-04T00:18:05.911Z,12.40
2018-04-04T00:20:08.639Z,12.50
2018-04-04T00:22:09.760Z,12.40
2018-04-04T00:24:14.518Z,12.40
2018-04-04T00:26:15.601Z,12.40
2018-04-04T00:28:16.622Z,12.40
2018-04-04T00:30:17.727Z,12.40
2018-04-04T00:32:19.534Z,12.50
2018-04-04T00:34:20.567Z,12.50
2018-04-04T00:36:21.582Z,12.50
2018-04-04T00:38:23.427Z,12.40
2018-04-04T00:40:24.445Z,12.30
2018-04-04T00:42:25.559Z,12.40
2018-04-04T00:44:27.256Z,12.20
2018-04-04T00:46:28.328Z,12.20
2018-04-04T00:48:29.371Z,12.10
2018-04-04T00:50:31.136Z,12.10
2018-04-04T00:52:32.082Z,12.00
2018-04-04T00:54:33.075Z,12.00
2018-04-04T00:56:35.990Z,12.00
2018-04-04T00:58:38.824Z,12.00
2018-04-04T01:00:40.101Z,12.00
2018-04-04T01:02:41.798Z,12.00
2018-04-04T01:04:42.812Z,12.00
2018-04-04T01:06:44.672Z,12.00
2018-04-04T01:08:45.838Z,11.90
2018-04-04T01:10:47.526Z,11.70
2018-04-04T01:12:48.544Z,11.70
2018-04-04T01:14:52.700Z,11.60
2018-04-04T01:16:53.724Z,11.60
2018-04-04T01:18:55.921Z,11.50
2018-04-04T01:20:57.100Z,11.50
2018-04-04T01:22:58.099Z,11.70
2018-04-04T01:24:59.782Z,11.80
2018-04-04T01:27:00.768Z,11.80
2018-04-04T01:29:01.804Z,11.80
2018-04-04T01:31:03.884Z,12.50
2018-04-04T01:33:04.922Z,12.40
2018-04-04T01:35:05.960Z,12.60
2018-04-04T01:37:07.540Z,12.60
2018-04-04T01:39:09.359Z,12.50
2018-04-04T01:41:10.339Z,12.40
2018-04-04T01:43:11.380Z,12.40
2018-04-04T01:45:15.022Z,12.40
2018-04-04T01:47:16.020Z,12.60
2018-04-04T01:49:19.057Z,12.70
2018-04-04T01:51:20.159Z,12.70
2018-04-04T01:53:21.293Z,12.70
2018-04-04T01:55:22.745Z,12.60
2018-04-04T01:57:23.863Z,12.50
2018-04-04T01:59:30.044Z,12.50
2018-04-04T02:01:31.799Z,12.60
2018-04-04T02:03:32.765Z,12.50
2018-04-04T02:05:35.420Z,12.50
2018-04-04T02:07:36.428Z,12.50
2018-04-04T02:09:37.371Z,12.50
2018-04-04T02:11:38.339Z,12.40
2018-04-04T02:13:39.389Z,12.30
2018-04-04T02:15:40.461Z,12.30
2018-04-04T02:17:41.585Z,12.10
2018-04-04T02:19:42.603Z,12.20
2018-04-04T02:21:43.567Z,12.10
2018-04-04T02:23:44.569Z,12.10
2018-04-04T02:25:45.645Z,12.00
2018-04-04T02:27:46.654Z,12.00
2018-04-04T02:29:47.619Z,12.10
2018-04-04T02:31:48.575Z,12.00
2018-04-04T02:33:50.392Z,11.90
2018-04-04T02:35:52.467Z,11.90
2018-04-04T02:37:54.887Z,11.90
2018-04-04T02:39:56.087Z,11.90
2018-04-04T02:41:57.052Z,12.00
2018-04-04T02:43:57.994Z,11.80
2018-04-04T02:45:59.003Z,11.80
2018-04-04T02:48:00.003Z,11.80
2018-04-04T02:50:01.160Z,11.70
2018-04-04T02:54:11.153Z,11.60
2018-04-04T02:56:12.984Z,11.50
2018-04-04T02:58:14.386Z,11.50
2018-04-04T03:00:15.475Z,11.40
2018-04-04T03:02:16.534Z,11.30
2018-04-04T03:04:17.555Z,11.30
2018-04-04T03:06:20.342Z,11.30
2018-04-04T03:08:23.319Z,11.30
2018-04-04T03:10:24.547Z,11.30
2018-04-04T03:12:25.603Z,11.20
2018-04-04T03:14:27.339Z,11.20
2018-04-04T03:16:28.288Z,11.20
2018-04-04T03:18:30.048Z,11.00
2018-04-04T03:20:31.106Z,11.00
2018-04-04T03:22:32.058Z,10.90
2018-04-04T03:24:33.048Z,10.90
2018-04-04T03:26:34.093Z,10.90
2018-04-04T03:28:36.140Z,10.80
2018-04-04T03:30:37.273Z,10.70
2018-04-04T03:32:38.374Z,10.60
2018-04-04T03:34:39.547Z,10.60
2018-04-04T03:36:40.617Z,10.60
2018-04-04T03:38:41.656Z,10.60
2018-04-04T03:40:42.663Z,10.60
2018-04-04T03:42:43.610Z,10.50
2018-04-04T03:44:44.692Z,10.40
2018-04-04T03:46:47.492Z,10.30
2018-04-04T03:48:48.576Z,10.30
2018-04-04T03:50:49.575Z,10.30
2018-04-04T03:52:50.690Z,10.20
2018-04-04T03:54:51.668Z,10.10
2018-04-04T03:56:52.691Z,10.10
2018-04-04T03:58:53.803Z,10.10
2018-04-04T04:00:54.799Z,10.10
2018-04-04T04:02:55.824Z,10.00
2018-04-04T04:04:56.911Z,10.00
2018-04-04T04:06:59.043Z,9.90
2018-04-04T04:09:00.060Z,9.90
2018-04-04T04:11:01.032Z,9.90
2018-04-04T04:13:01.994Z,9.80
2018-04-04T04:15:04.034Z,9.70
2018-04-04T04:17:04.987Z,9.70
2018-04-04T04:19:07.149Z,9.60
2018-04-04T04:21:08.627Z,9.60
2018-04-04T04:23:10.027Z,9.60
2018-04-04T04:25:11.042Z,9.50
2018-04-04T04:27:12.165Z,9.50
2018-04-04T04:29:13.460Z,9.50
2018-04-04T04:31:14.455Z,9.40
2018-04-04T04:33:16.134Z,9.20
2018-04-04T04:35:17.066Z,9.20
2018-04-04T04:37:18.799Z,9.00
2018-04-04T04:39:19.830Z,9.00
2018-04-04T04:41:20.934Z,9.00
2018-04-04T04:43:21.943Z,8.90
2018-04-04T04:45:22.892Z,8.90
2018-04-04T04:47:23.860Z,8.90
2018-04-04T04:49:26.528Z,9.00
2018-04-04T04:51:27.582Z,9.00
2018-04-04T04:53:28.536Z,9.00
2018-04-04T04:55:30.230Z,8.90
2018-04-04T04:57:32.269Z,8.90
2018-04-04T04:59:33.978Z,8.90
2018-04-04T05:01:34.970Z,8.90
2018-04-04T05:03:36.057Z,8.90
2018-04-04T05:05:37.302Z,8.90
2018-04-04T05:07:38.352Z,8.80
2018-04-04T05:09:39.432Z,8.80
2018-04-04T05:11:41.864Z,8.80
2018-04-04T05:13:43.049Z,8.80
2018-04-04T05:15:43.990Z,8.80
2018-04-04T05:17:44.993Z,8.90
2018-04-04T05:19:45.887Z,9.00
2018-04-04T05:21:46.846Z,9.00
2018-04-04T05:23:47.899Z,9.00
2018-04-04T05:25:49.783Z,9.10
2018-04-04T05:27:50.750Z,9.10
2018-04-04T05:29:51.887Z,9.20
2018-04-04T05:31:52.872Z,9.30
2018-04-04T05:33:55.360Z,9.60
2018-04-04T05:35:56.654Z,9.60
2018-04-04T05:37:57.850Z,9.70
2018-04-04T05:39:58.924Z,9.70
2018-04-04T05:41:59.903Z,9.80
2018-04-04T05:44:01.025Z,9.80
2018-04-04T05:46:02.061Z,9.90
2018-04-04T05:48:02.938Z,9.90
2018-04-04T05:50:03.949Z,10.00
2018-04-04T05:52:04.905Z,10.00
2018-04-04T05:54:05.871Z,10.10
2018-04-04T05:56:06.923Z,10.20
2018-04-04T05:58:08.882Z,10.20
2018-04-04T06:00:09.929Z,10.20
2018-04-04T06:02:11.002Z,10.20
2018-04-04T06:04:11.947Z,10.30
2018-04-04T06:06:13.682Z,10.40
2018-04-04T06:08:14.629Z,10.40
2018-04-04T06:10:15.583Z,10.40
2018-04-04T06:12:16.551Z,10.50
2018-04-04T06:14:17.635Z,10.40
2018-04-04T06:16:18.618Z,10.50
2018-04-04T06:18:19.561Z,10.50
2018-04-04T06:20:20.564Z,10.60
2018-04-04T06:22:22.379Z,10.70
2018-04-04T06:24:23.452Z,10.60
2018-04-04T06:26:24.894Z,10.80
2018-04-04T06:28:26.019Z,10.90
2018-04-04T06:30:26.959Z,11.10
2018-04-04T06:32:27.914Z,11.20
2018-04-04T06:34:29.029Z,11.30
2018-04-04T06:36:30.716Z,11.50
2018-04-04T06:38:32.711Z,11.50
2018-04-04T06:40:33.712Z,11.60
2018-04-04T06:42:35.427Z,11.90
2018-04-04T06:44:36.430Z,11.90
2018-04-04T06:46:38.106Z,12.20
2018-04-04T06:48:39.100Z,12.20
2018-04-04T06:50:40.970Z,12.30
2018-04-04T06:52:42.768Z,12.70
2018-04-04T06:54:44.443Z,12.90
2018-04-04T06:56:45.407Z,12.90
2018-04-04T06:58:46.379Z,13.10
2018-04-04T07:00:47.334Z,13.20
2018-04-04T07:02:48.278Z,13.50
2018-04-04T07:04:49.230Z,13.60
2018-04-04T07:06:50.295Z,13.70
2018-04-04T07:08:52.156Z,14.10
2018-04-04T07:10:54.100Z,14.40
2018-04-04T07:12:55.920Z,14.60
2018-04-04T07:14:57.127Z,14.60
2018-04-04T07:16:58.838Z,15.00
2018-04-04T07:18:59.791Z,15.00
2018-04-04T07:21:00.738Z,15.10
2018-04-04T07:23:01.705Z,15.30
2018-04-04T07:25:02.648Z,15.30
2018-04-04T07:27:03.606Z,15.70
2018-04-04T07:29:04.540Z,16.10
2018-04-04T07:31:05.458Z,15.90
2018-04-04T07:33:06.394Z,16.00
2018-04-04T07:35:07.336Z,16.20
2018-04-04T07:37:08.271Z,16.20
2018-04-04T07:39:10.120Z,16.40
2018-04-04T07:41:11.876Z,16.10
2018-04-04T07:43:12.897Z,16.10
2018-04-04T07:45:13.846Z,16.50
2018-04-04T07:47:14.827Z,16.50
2018-04-04T07:49:16.547Z,16.90
2018-04-04T07:51:17.651Z,16.90
2018-04-04T07:53:18.586Z,16.90
2018-04-04T07:55:19.533Z,16.90
2018-04-04T07:57:20.608Z,17.40
2018-04-04T07:59:22.559Z,17.90
2018-04-04T08:01:23.660Z,17.80
2018-04-04T08:03:24.681Z,17.80
2018-04-04T08:05:25.748Z,18.10
2018-04-04T08:07:26.736Z,18.50
2018-04-04T08:09:27.717Z,18.20
2018-04-04T08:11:28.755Z,18.00
2018-04-04T08:13:30.431Z,17.70
2018-04-04T08:15:31.399Z,17.70
2018-04-04T08:17:32.371Z,17.50
2018-04-04T08:19:33.345Z,17.90
2018-04-04T08:21:35.036Z,17.60
2018-04-04T08:23:35.994Z,17.60
2018-04-04T08:25:36.953Z,18.00
2018-04-04T08:27:37.908Z,17.70
2018-04-04T08:29:38.914Z,18.00
2018-04-04T08:31:40.016Z,18.80
2018-04-04T08:33:41.089Z,18.90
2018-04-04T08:35:42.023Z,19.10
2018-04-04T08:37:42.982Z,19.50
2018-04-04T08:39:43.924Z,20.00
2018-04-04T08:41:44.870Z,19.90
2018-04-04T08:43:45.852Z,20.00
2018-04-04T08:45:46.855Z,19.90
2018-04-04T08:47:47.795Z,20.20
2018-04-04T08:49:48.776Z,20.10
2018-04-04T08:51:50.515Z,19.60
2018-04-04T08:53:51.551Z,19.60
2018-04-04T08:55:52.547Z,20.40
2018-04-04T08:57:53.535Z,20.80
2018-04-04T08:59:54.531Z,21.20
2018-04-04T09:01:55.508Z,20.40
2018-04-04T09:03:56.604Z,20.50
2018-04-04T09:05:57.539Z,21.00
2018-04-04T09:07:59.798Z,20.00
2018-04-04T09:10:00.853Z,19.80
2018-04-04T09:12:01.792Z,19.60
2018-04-04T09:14:02.743Z,20.00
2018-04-04T09:16:03.692Z,19.50
2018-04-04T09:18:04.638Z,19.10
2018-04-04T09:20:05.594Z,19.10
2018-04-04T09:22:06.527Z,17.90
2018-04-04T09:24:07.475Z,17.90
2018-04-04T09:26:08.483Z,18.00
2018-04-04T09:28:09.470Z,17.80
2018-04-04T09:30:10.458Z,17.50
2018-04-04T09:32:11.448Z,17.50
2018-04-04T09:34:12.476Z,16.70
2018-04-04T09:36:13.435Z,16.20
2018-04-04T09:38:14.386Z,16.40
2018-04-04T09:40:15.346Z,16.10
2018-04-04T09:42:16.284Z,15.80
2018-04-04T09:44:17.252Z,15.80
2018-04-04T09:46:18.208Z,15.80
2018-04-04T09:48:19.150Z,15.60
2018-04-04T09:50:20.423Z,15.50
2018-04-04T09:52:22.201Z,15.30
2018-04-04T09:54:23.254Z,15.30
2018-04-04T09:56:24.291Z,15.30
2018-04-04T09:58:25.379Z,15.10
2018-04-04T10:00:26.587Z,15.20
2018-04-04T10:02:27.541Z,15.00
2018-04-04T10:04:28.522Z,14.90
2018-04-04T10:06:29.464Z,14.90
2018-04-04T10:08:30.423Z,14.80
2018-04-04T10:10:31.484Z,14.70
2018-04-04T10:12:33.183Z,14.70
2018-04-04T10:14:34.904Z,14.70
2018-04-04T10:16:35.839Z,14.70
2018-04-04T10:18:36.792Z,14.80
2018-04-04T10:20:37.809Z,14.80
2018-04-04T10:22:39.757Z,15.00
2018-04-04T10:24:40.828Z,15.00
2018-04-04T10:26:41.775Z,15.10
2018-04-04T10:28:42.806Z,15.10
2018-04-04T10:30:43.800Z,15.10
2018-04-04T10:32:44.759Z,15.10
2018-04-04T10:34:45.743Z,15.10
2018-04-04T10:36:46.709Z,15.10
2018-04-04T10:38:49.165Z,15.10
2018-04-04T10:40:50.240Z,15.10
2018-04-04T10:42:51.196Z,15.00
2018-04-04T10:44:52.158Z,15.10
2018-04-04T10:46:53.144Z,15.10
2018-04-04T10:48:54.878Z,15.20
2018-04-04T10:50:55.811Z,15.20
2018-04-04T10:52:56.764Z,15.30
2018-04-04T10:54:57.714Z,15.30
2018-04-04T10:56:58.856Z,15.40
2018-04-04T10:58:59.897Z,15.40
2018-04-04T11:01:00.952Z,15.40
2018-04-04T11:03:02.064Z,15.40
2018-04-04T11:05:03.079Z,15.50
2018-04-04T11:07:04.813Z,15.60
2018-04-04T11:09:05.792Z,15.60
2018-04-04T11:11:07.536Z,15.60
2018-04-04T11:13:08.762Z,15.60
2018-04-04T11:15:09.754Z,15.70
2018-04-04T11:17:11.464Z,15.80
2018-04-04T11:19:12.471Z,15.80
2018-04-04T11:21:13.450Z,15.80
2018-04-04T11:23:14.485Z,16.00
2018-04-04T11:25:15.537Z,15.90
2018-04-04T11:27:16.508Z,15.80
2018-04-04T11:29:17.464Z,15.80
2018-04-04T11:31:18.425Z,15.80
2018-04-04T11:33:19.426Z,15.70
2018-04-04T11:35:20.436Z,15.70
2018-04-04T11:37:22.278Z,15.70
2018-04-04T11:39:23.247Z,15.60
2018-04-04T11:41:24.920Z,15.50
2018-04-04T11:43:26.627Z,15.50
2018-04-04T11:45:27.610Z,15.50
2018-04-04T11:47:28.568Z,15.50
2018-04-04T11:49:30.277Z,15.60
2018-04-04T11:51:31.276Z,15.60
2018-04-04T11:53:32.219Z,15.70
2018-04-04T11:55:33.924Z,15.80
2018-04-04T11:57:34.884Z,15.80
2018-04-04T11:59:35.826Z,15.80
2018-04-04T12:01:36.783Z,15.80
2018-04-04T12:03:37.742Z,15.80
2018-04-04T12:05:38.731Z,15.80
2018-04-04T12:07:40.467Z,15.60
2018-04-04T12:09:41.467Z,15.60
2018-04-04T12:11:42.415Z,15.60
2018-04-04T12:13:43.382Z,15.50
2018-04-04T12:15:44.355Z,15.50
2018-04-04T12:17:46.050Z,15.50
2018-04-04T12:19:46.995Z,15.50
2018-04-04T12:21:47.952Z,15.60
2018-04-04T12:23:49.064Z,15.70
2018-04-04T12:25:50.835Z,16.10
2018-04-04T12:27:52.596Z,16.70
2018-04-04T12:29:54.427Z,16.80
2018-04-04T12:31:55.486Z,16.80
2018-04-04T12:33:56.426Z,17.40
2018-04-04T12:35:57.394Z,17.80
2018-04-04T12:37:59.066Z,18.40
2018-04-04T12:40:00.738Z,18.10
2018-04-04T12:42:01.689Z,18.10
2018-04-04T12:44:02.632Z,18.10
2018-04-04T12:46:03.567Z,18.10
2018-04-04T12:48:05.252Z,18.30
2018-04-04T12:50:06.206Z,18.30
2018-04-04T12:52:07.161Z,18.40
2018-04-04T12:54:08.315Z,18.20
2018-04-04T12:56:09.276Z,18.40
2018-04-04T12:58:10.390Z,18.80
2018-04-04T13:00:11.423Z,19.40
2018-04-04T13:02:12.490Z,19.70
2018-04-04T13:04:13.438Z,19.10
2018-04-04T13:06:14.374Z,19.00
2018-04-04T13:08:15.315Z,18.60
2018-04-04T13:10:16.267Z,18.40
2018-04-04T13:12:17.218Z,18.20
2018-04-04T13:14:18.362Z,18.00
2018-04-04T13:16:32.523Z,18.00
2018-04-04T13:18:34.491Z,18.00
2018-04-04T13:20:35.440Z,18.10
2018-04-04T13:22:36.400Z,18.40
2018-04-04T13:24:37.358Z,18.50
2018-04-04T13:26:38.356Z,18.70
2018-04-04T13:28:39.307Z,18.80
2018-04-04T13:30:40.239Z,18.70
2018-04-04T13:32:41.941Z,18.30
2018-04-04T13:34:42.887Z,18.40
2018-04-04T13:36:44.613Z,18.10
2018-04-04T13:38:46.290Z,18.10
2018-04-04T13:40:47.252Z,18.10
2018-04-04T13:42:48.182Z,17.90
2018-04-04T13:44:49.204Z,18.00
2018-04-04T13:46:50.894Z,18.10
2018-04-04T13:48:51.929Z,18.10
2018-04-04T13:50:52.898Z,18.20
2018-04-04T13:52:53.861Z,18.30
2018-04-04T13:54:54.787Z,18.40
2018-04-04T13:56:55.730Z,18.60
2018-04-04T13:58:56.683Z,18.70
2018-04-04T14:00:57.627Z,18.90
2018-04-04T14:02:59.347Z,18.70
2018-04-04T14:05:01.023Z,18.70
2018-04-04T14:07:02.815Z,18.70
2018-04-04T14:09:04.727Z,18.70
2018-04-04T14:11:05.703Z,18.60
2018-04-04T14:13:07.411Z,18.20
2018-04-04T14:15:08.361Z,18.20
2018-04-04T14:17:09.687Z,18.00
2018-04-04T14:19:10.683Z,17.80
2018-04-04T14:21:11.620Z,17.70
2018-04-04T14:23:12.667Z,17.50
2018-04-04T14:25:13.749Z,17.40
2018-04-04T14:27:14.776Z,17.20
2018-04-04T14:29:16.726Z,17.00
2018-04-04T14:31:18.535Z,16.90
2018-04-04T14:33:20.218Z,16.70
2018-04-04T14:35:21.151Z,16.70
2018-04-04T14:37:22.111Z,16.60
2018-04-04T14:39:23.055Z,16.50
2018-04-04T14:41:24.000Z,16.40
2018-04-04T14:43:24.962Z,16.30
2018-04-04T14:45:25.899Z,16.20
2018-04-04T14:47:26.832Z,16.10
2018-04-04T14:49:27.779Z,16.00
2018-04-04T14:51:28.727Z,15.90
2018-04-04T14:53:29.708Z,15.90
2018-04-04T14:55:30.682Z,15.90
2018-04-04T14:57:32.435Z,15.70
2018-04-04T14:59:33.494Z,15.70
2018-04-04T15:01:35.175Z,15.00
2018-04-04T15:03:36.880Z,14.20
2018-04-04T15:05:37.829Z,14.20
2018-04-04T15:07:38.823Z,13.20
2018-04-04T15:09:40.606Z,12.80
2018-04-04T15:11:41.607Z,12.80
2018-04-04T15:13:42.595Z,12.70
2018-04-04T15:15:43.697Z,12.50
2018-04-04T15:17:44.689Z,12.40
2018-04-04T15:19:45.670Z,12.40
2018-04-04T15:21:46.641Z,12.40
2018-04-04T15:23:47.596Z,12.40
2018-04-04T15:25:48.591Z,12.60
2018-04-04T15:27:49.531Z,12.60
2018-04-04T15:29:50.487Z,12.70
2018-04-04T15:31:51.435Z,12.70
2018-04-04T15:33:53.102Z,12.90
2018-04-04T15:35:54.048Z,12.90
2018-04-04T15:37:55.048Z,13.00
2018-04-04T15:39:57.654Z,13.00
2018-04-04T15:41:58.641Z,13.00
2018-04-04T15:43:59.635Z,13.10
2018-04-04T15:46:00.626Z,13.20
2018-04-04T15:48:01.816Z,13.20
2018-04-04T15:50:06.970Z,13.10
2018-04-04T15:52:08.795Z,13.10
2018-04-04T15:54:09.751Z,13.30
2018-04-04T15:56:10.920Z,13.30
2018-04-04T15:58:12.688Z,13.40
2018-04-04T16:00:13.702Z,13.30
2018-04-04T16:02:20.681Z,13.40
2018-04-04T16:04:21.623Z,13.30
2018-04-04T16:06:22.571Z,13.20
2018-04-04T16:08:23.505Z,13.10
2018-04-04T16:10:24.460Z,13.00
2018-04-04T16:12:26.168Z,12.90
2018-04-04T16:14:27.108Z,12.90
2018-04-04T16:16:28.050Z,12.80
2018-04-04T16:18:29.034Z,12.80
2018-04-04T16:20:29.976Z,12.80
2018-04-04T16:22:31.328Z,12.90
2018-04-04T16:24:32.330Z,12.90
2018-04-04T16:26:33.299Z,12.90
2018-04-04T16:28:35.350Z,13.00
2018-04-04T16:30:36.295Z,13.00
2018-04-04T16:32:37.239Z,13.00
2018-04-04T16:34:39.449Z,13.00
2018-04-04T16:36:41.797Z,13.10
2018-04-04T16:38:43.571Z,13.20
2018-04-04T16:40:44.575Z,13.20
2018-04-04T16:42:45.588Z,13.20
2018-04-04T16:44:47.273Z,13.40
2018-04-04T16:46:49.563Z,13.40
2018-04-04T16:48:50.811Z,13.40
2018-04-04T16:50:51.798Z,13.50
2018-04-04T16:52:52.759Z,13.50
2018-04-04T16:54:53.770Z,13.70
2018-04-04T16:56:55.334Z,13.70
2018-04-04T16:58:57.063Z,13.80
2018-04-04T17:00:58.015Z,13.70
2018-04-04T17:02:58.968Z,13.70
2018-04-04T17:05:00.020Z,13.60
2018-04-04T17:07:00.980Z,13.50
2018-04-04T17:09:01.936Z,13.40
2018-04-04T17:11:02.915Z,13.30
2018-04-04T17:13:04.781Z,13.20
2018-04-04T17:15:05.779Z,13.10
2018-04-04T17:17:06.817Z,13.10
2018-04-04T17:19:07.783Z,13.00
2018-04-04T17:21:08.779Z,13.00
2018-04-04T17:23:09.959Z,12.90
2018-04-04T17:25:10.918Z,12.80
2018-04-04T17:27:11.878Z,12.70
2018-04-04T17:29:12.824Z,12.60
2018-04-04T17:31:13.779Z,12.50
2018-04-04T17:33:14.736Z,12.50
2018-04-04T17:35:15.693Z,12.50
2018-04-04T17:37:17.384Z,12.50
2018-04-04T17:39:18.339Z,12.40
2018-04-04T17:41:19.299Z,12.40
2018-04-04T17:43:20.242Z,12.50
2018-04-04T17:45:21.192Z,12.40
2018-04-04T17:47:22.152Z,12.40
2018-04-04T17:49:23.173Z,12.40
2018-04-04T17:51:24.191Z,12.40
2018-04-04T17:53:25.877Z,12.20
2018-04-04T17:55:26.846Z,12.20
2018-04-04T17:57:28.641Z,12.30
2018-04-04T17:59:29.638Z,12.30
2018-04-04T18:01:30.591Z,12.20
2018-04-04T18:03:31.543Z,12.20
2018-04-04T18:05:32.524Z,12.20
2018-04-04T18:07:33.474Z,12.10
2018-04-04T18:09:34.489Z,12.10
2018-04-04T18:11:35.495Z,12.20
2018-04-04T18:13:36.538Z,12.10
2018-04-04T18:15:37.540Z,12.00
2018-04-04T18:17:38.557Z,11.90
2018-04-04T18:19:39.641Z,11.90
2018-04-04T18:21:40.657Z,12.00
2018-04-04T18:23:41.595Z,12.00
2018-04-04T18:25:42.531Z,11.90
2018-04-04T18:27:43.462Z,12.00
2018-04-04T18:29:45.185Z,11.90
2018-04-04T18:31:46.184Z,11.90
2018-04-04T18:33:47.213Z,11.80
2018-04-04T18:35:49.016Z,11.60
2018-04-04T18:37:49.970Z,11.60
2018-04-04T18:39:50.923Z,11.60
2018-04-04T18:41:51.866Z,11.50
2018-04-04T18:43:52.800Z,11.50
2018-04-04T18:45:53.726Z,11.50
2018-04-04T18:47:54.659Z,11.50
2018-04-04T18:49:56.554Z,11.40
2018-04-04T18:51:57.666Z,11.40
2018-04-04T18:53:59.456Z,11.30
2018-04-04T18:56:00.459Z,11.20
2018-04-04T18:58:01.436Z,11.20
2018-04-04T19:00:03.134Z,11.20
2018-04-04T19:02:04.736Z,11.20
2018-04-04T19:04:06.415Z,11.40
2018-04-04T19:06:08.108Z,11.40
2018-04-04T19:08:09.208Z,11.40
2018-04-04T19:10:10.206Z,11.30
2018-04-04T19:12:11.899Z,11.40
2018-04-04T19:14:12.864Z,11.40
2018-04-04T19:16:13.836Z,11.30
2018-04-04T19:18:14.809Z,11.30
2018-04-04T19:20:15.805Z,11.30
2018-04-04T19:22:16.923Z,11.20
2018-04-04T19:24:17.880Z,11.20
2018-04-04T19:26:18.806Z,11.20
2018-04-04T19:28:19.766Z,11.10
2018-04-04T19:30:20.726Z,11.00
2018-04-04T19:32:21.703Z,11.00
2018-04-04T19:34:23.954Z,10.90
2018-04-04T19:36:24.916Z,10.90
2018-04-04T19:38:26.757Z,10.90
2018-04-04T19:40:27.863Z,10.80
2018-04-04T19:42:28.882Z,10.80
2018-04-04T19:44:30.650Z,10.60
2018-04-04T19:46:31.819Z,10.60
2018-04-04T19:48:32.886Z,10.50
2018-04-04T19:50:33.832Z,10.50
2018-04-04T19:52:34.828Z,10.40
2018-04-04T19:54:35.829Z,10.40
2018-04-04T19:56:37.767Z,10.40
2018-04-04T19:58:39.462Z,10.60
2018-04-04T20:00:40.450Z,10.60
2018-04-04T20:02:41.436Z,10.60
2018-04-04T20:04:42.463Z,10.60
2018-04-04T20:06:43.519Z,10.70
2018-04-04T20:08:44.509Z,10.70
2018-04-04T20:10:46.366Z,10.70
2018-04-04T20:12:48.404Z,10.70
2018-04-04T20:14:49.372Z,10.60
2018-04-04T20:16:51.405Z,10.40
2018-04-04T20:18:52.382Z,10.30
2018-04-04T20:20:53.355Z,10.40
2018-04-04T20:22:54.483Z,10.30
2018-04-04T20:24:55.548Z,10.30
2018-04-04T20:26:56.964Z,10.30
2018-04-04T20:28:57.967Z,10.40
2018-04-04T20:30:59.256Z,10.40
2018-04-04T20:33:01.305Z,10.40
2018-04-04T20:35:02.399Z,10.40
2018-04-04T20:37:03.539Z,10.40
2018-04-04T20:39:04.724Z,10.60
2018-04-04T20:41:05.732Z,10.60
2018-04-04T20:43:07.466Z,10.90
2018-04-04T20:45:09.324Z,10.80
2018-04-04T20:47:10.516Z,10.80
2018-04-04T20:49:11.515Z,10.70
2018-04-04T20:51:12.918Z,10.70
2018-04-04T20:53:14.153Z,10.70
2018-04-04T20:55:15.930Z,11.00
2018-04-04T20:57:16.919Z,11.00
2018-04-04T20:59:17.876Z,11.00
2018-04-04T21:01:18.826Z,10.90
2018-04-04T21:03:19.896Z,10.80
2018-04-04T21:05:21.965Z,10.80
2018-04-04T21:07:23.139Z,10.70
2018-04-04T21:09:25.239Z,10.70
2018-04-04T21:11:26.243Z,10.90
2018-04-04T21:13:27.185Z,10.90
2018-04-04T21:15:28.239Z,10.90
2018-04-04T21:17:29.869Z,11.00
2018-04-04T21:19:30.925Z,10.90
2018-04-04T21:21:31.950Z,10.70
2018-04-04T21:23:33.076Z,10.60
2018-04-04T21:25:34.075Z,10.40
2018-04-04T21:27:35.063Z,10.40
2018-04-04T21:29:36.001Z,10.40
2018-04-04T21:31:37.790Z,10.30
2018-04-04T21:33:38.808Z,10.20
2018-04-04T21:35:40.541Z,10.20
2018-04-04T21:37:41.580Z,10.20
2018-04-04T21:39:42.644Z,10.20
2018-04-04T21:41:43.660Z,10.20
2018-04-04T21:43:44.752Z,10.30
2018-04-04T21:45:45.983Z,10.30
2018-04-04T21:47:47.028Z,10.40
2018-04-04T21:49:48.924Z,10.40
2018-04-04T21:51:50.733Z,10.40
2018-04-04T21:53:51.775Z,10.30
2018-04-04T21:55:52.771Z,10.40
2018-04-04T21:57:53.871Z,10.50
2018-04-04T21:59:54.812Z,10.50
2018-04-04T22:01:55.892Z,10.60
2018-04-04T22:03:56.965Z,10.60
2018-04-04T22:05:58.709Z,10.50
2018-04-04T22:07:59.663Z,10.50
2018-04-04T22:10:01.608Z,10.50
2018-04-04T22:12:03.398Z,10.50
2018-04-04T22:14:04.351Z,10.50
2018-04-04T22:16:05.362Z,10.60
2018-04-04T22:18:06.599Z,10.50
2018-04-04T22:20:07.591Z,10.50
2018-04-04T22:22:08.568Z,10.50
2018-04-04T22:24:10.352Z,10.40
2018-04-04T22:26:11.319Z,10.40
2018-04-04T22:28:12.428Z,10.40
2018-04-04T22:30:14.243Z,10.40
2018-04-04T22:32:15.418Z,10.30
2018-04-04T22:34:16.464Z,10.40
2018-04-04T22:36:17.652Z,10.40
2018-04-04T22:38:18.730Z,10.40
2018-04-04T22:40:19.667Z,10.30
2018-04-04T22:42:21.818Z,10.40
2018-04-04T22:44:22.845Z,10.30
2018-04-04T22:46:23.883Z,10.30
2018-04-04T22:48:24.943Z,10.30
2018-04-04T22:50:25.861Z,10.30
2018-04-04T22:52:26.895Z,10.20
2018-04-04T22:54:28.591Z,10.30
2018-04-04T22:56:29.577Z,10.20
2018-04-04T22:58:30.598Z,10.20
2018-04-04T23:00:32.372Z,10.20
2018-04-04T23:02:34.074Z,10.20
2018-04-04T23:04:35.057Z,10.10
2018-04-04T23:06:36.086Z,10.10
2018-04-04T23:08:37.061Z,10.10
2018-04-04T23:10:38.013Z,10.00
2018-04-04T23:12:39.856Z,10.00
2018-04-04T23:14:40.785Z,10.00
2018-04-04T23:16:41.844Z,10.00
2018-04-04T23:18:42.974Z,10.00
2018-04-04T23:20:44.119Z,10.00
2018-04-04T23:22:45.158Z,10.00
2018-04-04T23:24:46.506Z,10.10
2018-04-04T23:26:47.566Z,10.10
2018-04-04T23:28:48.683Z,10.10
2018-04-04T23:30:49.712Z,10.10
2018-04-04T23:32:50.777Z,10.00
2018-04-04T23:34:53.576Z,10.00
2018-04-04T23:36:54.674Z,10.00
2018-04-04T23:38:55.623Z,10.10
2018-04-04T23:40:56.622Z,10.20
2018-04-04T23:42:57.615Z,10.30
2018-04-04T23:44:58.891Z,10.30
2018-04-04T23:46:59.818Z,10.30
2018-04-04T23:49:00.861Z,10.30
2018-04-04T23:51:01.951Z,10.40
2018-04-04T23:53:03.725Z,10.40
2018-04-04T23:55:05.442Z,10.50
2018-04-04T23:57:06.623Z,10.50
2018-04-04T23:59:07.743Z,10.50
